Poulton-le-Fylde, United Kingdom
Current Conditions -  °F | °C
As of 6:20 AM on Wednesday 22 Oct 2014 (Local Time) from EGCC Reporting Station
Broken Clouds Broken Clouds  
Wind Chill: 50°   Ceiling: 4800
Heat Index: 50°   Visibility: 6mi
Dew Point: 43°   Wind: 14mph
Humidity: 76%   Direction: 280°W
Pressure: 30.18"   Gusts: NA
Location:  53.83°N, 2.98°W
Report Text: EGCC 220520Z 28012KT 9999 FEW027 SCT039 BKN048 10/06 Q1022
Loading
Personal Weather Stations






























Interactive Weather Map
Tropical Storm Tracking
New forecast layout! Learn more

10-Day Weather Forecast

Advertisements
Track Severe Weather on mobile